createdAt,value
2019-01-30T00:01:29.424Z,6.40
2019-01-30T00:04:00.598Z,7.47
2019-01-30T00:06:35.877Z,6.10
2019-01-30T00:09:14.860Z,5.23
2019-01-30T00:11:48.976Z,5.57
2019-01-30T00:14:19.560Z,5.17
2019-01-30T00:16:56.517Z,8.40
2019-01-30T00:19:29.226Z,6.73
2019-01-30T00:22:02.637Z,7.37
2019-01-30T00:24:37.506Z,6.40
2019-01-30T00:27:34.923Z,7.83
2019-01-30T00:30:10.740Z,9.33
2019-01-30T00:32:42.509Z,7.57
2019-01-30T00:35:21.431Z,4.07
2019-01-30T00:38:02.155Z,6.30
2019-01-30T00:40:37.383Z,11.10
2019-01-30T00:43:19.063Z,6.87
2019-01-30T00:45:54.598Z,6.87
2019-01-30T00:48:24.819Z,6.73
2019-01-30T00:50:58.129Z,6.60
2019-01-30T00:53:31.613Z,7.30
2019-01-30T00:56:02.943Z,6.30
2019-01-30T00:58:32.914Z,8.57
2019-01-30T01:01:06.201Z,7.10
2019-01-30T01:03:36.466Z,5.83
2019-01-30T01:06:40.963Z,6.40
2019-01-30T01:09:17.661Z,6.90
2019-01-30T01:11:54.755Z,7.30
2019-01-30T01:14:32.366Z,7.57
2019-01-30T01:17:12.738Z,10.30
2019-01-30T01:19:41.108Z,7.77
2019-01-30T01:22:19.792Z,6.87
2019-01-30T01:24:52.349Z,7.43
2019-01-30T01:27:34.940Z,6.70
2019-01-30T01:30:09.524Z,7.80
2019-01-30T01:33:01.313Z,7.70
2019-01-30T01:35:38.890Z,7.13
2019-01-30T01:38:25.554Z,6.40
2019-01-30T01:41:01.185Z,6.43
2019-01-30T01:43:32.440Z,7.80
2019-01-30T01:46:04.714Z,8.00
2019-01-30T01:48:35.495Z,9.63
2019-01-30T01:54:04.123Z,7.70
2019-01-30T01:56:32.823Z,10.57
2019-01-30T01:59:04.906Z,8.17
2019-01-30T02:01:50.820Z,9.03
2019-01-30T02:04:23.055Z,6.40
2019-01-30T02:07:06.070Z,7.93
2019-01-30T02:09:40.113Z,6.63
2019-01-30T02:12:12.551Z,7.93
2019-01-30T02:14:54.720Z,7.73
2019-01-30T02:17:34.471Z,7.33
2019-01-30T02:20:08.824Z,7.03
2019-01-30T02:22:39.962Z,7.40
2019-01-30T02:25:13.766Z,7.30
2019-01-30T02:27:51.816Z,7.43
2019-01-30T02:30:30.126Z,8.03
2019-01-30T02:33:08.471Z,8.10
2019-01-30T02:35:52.921Z,8.73
2019-01-30T02:38:48.043Z,10.00
2019-01-30T02:41:24.991Z,7.37
2019-01-30T02:44:01.828Z,9.93
2019-01-30T02:46:44.914Z,8.70
2019-01-30T02:49:24.225Z,8.30
2019-01-30T02:51:49.174Z,7.50
2019-01-30T02:54:20.126Z,8.50
2019-01-30T02:56:59.635Z,8.83
2019-01-30T02:59:34.902Z,10.47
2019-01-30T03:02:28.215Z,11.70
2019-01-30T03:05:03.341Z,7.10
2019-01-30T03:07:35.714Z,7.40
2019-01-30T03:10:16.368Z,8.77
2019-01-30T03:12:54.245Z,7.97
2019-01-30T03:15:32.270Z,8.60
2019-01-30T03:18:19.303Z,7.50
2019-01-30T03:20:51.753Z,7.83
2019-01-30T03:23:41.908Z,7.40
2019-01-30T03:26:36.665Z,7.27
2019-01-30T03:29:25.790Z,9.47
2019-01-30T03:31:57.658Z,8.80
2019-01-30T03:34:27.950Z,9.87
2019-01-30T03:37:02.234Z,13.90
2019-01-30T03:39:45.403Z,7.37
2019-01-30T03:42:39.970Z,7.67
2019-01-30T03:45:17.619Z,7.33
2019-01-30T03:47:49.513Z,8.20
2019-01-30T03:50:38.818Z,9.60
2019-01-30T03:53:10.312Z,8.03
2019-01-30T03:55:48.888Z,9.60
2019-01-30T03:58:37.536Z,10.87
2019-01-30T04:01:26.272Z,8.87
2019-01-30T04:03:50.840Z,11.53
2019-01-30T04:06:37.667Z,8.83
2019-01-30T04:09:27.411Z,8.67
2019-01-30T04:12:01.673Z,9.60
2019-01-30T04:14:45.497Z,9.50
2019-01-30T04:17:32.574Z,9.30
2019-01-30T04:20:03.784Z,10.00
2019-01-30T04:22:36.839Z,14.20
2019-01-30T04:25:06.907Z,9.70
2019-01-30T04:27:42.048Z,10.30
2019-01-30T04:30:20.985Z,9.07
2019-01-30T04:32:59.226Z,10.40
2019-01-30T04:35:32.786Z,10.23
2019-01-30T04:38:03.803Z,9.10
2019-01-30T04:40:52.183Z,13.73
2019-01-30T04:43:27.490Z,9.63
2019-01-30T04:46:09.687Z,9.70
2019-01-30T04:48:42.831Z,10.13
2019-01-30T04:51:14.153Z,9.57
2019-01-30T04:53:47.484Z,10.03
2019-01-30T04:56:21.811Z,10.93
2019-01-30T04:58:53.724Z,8.73
2019-01-30T05:01:32.177Z,9.63
2019-01-30T05:07:15.778Z,9.37
2019-01-30T05:10:41.020Z,10.10
2019-01-30T05:13:40.805Z,10.93
2019-01-30T05:16:02.711Z,10.23
2019-01-30T05:19:01.812Z,11.87
2019-01-30T05:22:10.167Z,10.47
2019-01-30T05:25:50.974Z,11.70
2019-01-30T05:28:15.004Z,11.30
2019-01-30T05:31:18.463Z,10.27
2019-01-30T05:34:24.116Z,12.23
2019-01-30T05:40:45.188Z,14.60
2019-01-30T05:43:54.579Z,9.53
2019-01-30T05:54:28.137Z,14.77
2019-01-30T05:58:25.616Z,12.17
2019-01-30T06:00:34.562Z,11.73
2019-01-30T06:07:41.140Z,10.80
2019-01-30T06:11:23.112Z,10.17
2019-01-30T06:15:01.115Z,12.40
2019-01-30T06:18:14.868Z,10.47
2019-01-30T07:00:32.259Z,12.23
2019-01-30T07:07:10.643Z,11.70
2019-01-30T07:09:42.074Z,11.43
2019-01-30T07:12:15.091Z,14.47
2019-01-30T07:14:46.212Z,11.60
2019-01-30T07:17:15.463Z,12.20
2019-01-30T07:19:43.535Z,16.20
2019-01-30T07:22:11.558Z,11.53
2019-01-30T07:24:40.037Z,9.87
2019-01-30T07:27:08.262Z,10.70
2019-01-30T07:29:42.783Z,10.60
2019-01-30T07:32:14.606Z,8.97
2019-01-30T07:34:44.333Z,10.90
2019-01-30T07:37:14.125Z,15.70
2019-01-30T07:39:42.703Z,10.90
2019-01-30T07:42:14.463Z,9.70
2019-01-30T07:44:50.756Z,3.90
2019-01-30T07:47:16.662Z,2.97
2019-01-30T07:50:35.152Z,4.13
2019-01-30T07:53:27.478Z,13.20
2019-01-30T08:03:55.333Z,3.97
2019-01-30T08:10:57.661Z,3.00
2019-01-30T08:14:06.504Z,3.60
2019-01-30T08:16:49.618Z,5.20
2019-01-30T08:22:56.489Z,5.87
2019-01-30T08:29:07.841Z,5.10
2019-01-30T08:31:50.702Z,5.90
2019-01-30T08:34:20.891Z,4.03
2019-01-30T08:36:53.729Z,5.30
2019-01-30T08:39:21.232Z,6.17
2019-01-30T08:41:49.069Z,4.53
2019-01-30T08:44:16.637Z,5.40
2019-01-30T08:46:46.943Z,5.03
2019-01-30T08:49:15.771Z,5.30
2019-01-30T08:51:43.341Z,5.70
2019-01-30T08:54:10.826Z,5.90
2019-01-30T08:56:39.174Z,6.03
2019-01-30T08:59:07.911Z,7.20
2019-01-30T09:01:35.424Z,6.07
2019-01-30T09:04:05.228Z,5.73
2019-01-30T09:06:32.751Z,4.60
2019-01-30T09:09:00.909Z,4.53
2019-01-30T09:11:35.218Z,8.47
2019-01-30T09:14:02.685Z,4.67
2019-01-30T09:16:30.235Z,4.43
2019-01-30T09:19:00.189Z,6.87
2019-01-30T09:21:27.497Z,5.70
2019-01-30T09:23:55.427Z,4.57
2019-01-30T09:26:22.956Z,5.70
2019-01-30T09:28:53.432Z,5.43
2019-01-30T09:31:20.920Z,5.30
2019-01-30T09:33:48.470Z,8.77
2019-01-30T09:36:15.928Z,5.77
2019-01-30T09:38:43.414Z,6.67
2019-01-30T09:41:10.910Z,5.80
2019-01-30T09:43:38.368Z,13.40
2019-01-30T09:46:06.244Z,5.93
2019-01-30T09:48:33.826Z,4.50
2019-01-30T09:51:01.622Z,5.07
2019-01-30T09:53:29.408Z,4.43
2019-01-30T09:55:56.892Z,4.50
2019-01-30T09:58:27.722Z,4.10
2019-01-30T10:00:55.220Z,5.47
2019-01-30T10:03:22.662Z,5.67
2019-01-30T10:05:50.151Z,3.90
2019-01-30T10:08:17.758Z,4.70
2019-01-30T10:10:45.259Z,4.50
2019-01-30T10:13:15.659Z,2.17
2019-01-30T10:15:43.929Z,3.30
2019-01-30T10:18:14.873Z,3.83
2019-01-30T10:20:45.602Z,1.83
2019-01-30T10:23:13.580Z,2.00
2019-01-30T10:25:42.995Z,2.30
2019-01-30T10:28:16.713Z,1.10
2019-01-30T10:30:41.749Z,2.13
2019-01-30T10:33:09.264Z,1.40
2019-01-30T10:35:36.848Z,1.40
2019-01-30T10:38:04.679Z,1.73
2019-01-30T10:40:32.159Z,1.40
2019-01-30T10:42:59.655Z,1.43
2019-01-30T10:45:27.448Z,1.80
2019-01-30T10:47:54.930Z,2.03
2019-01-30T10:50:26.556Z,2.37
2019-01-30T10:52:54.446Z,1.70
2019-01-30T10:55:23.872Z,3.63
2019-01-30T10:57:53.541Z,1.23
2019-01-30T11:00:23.456Z,1.97
2019-01-30T11:02:50.982Z,1.50
2019-01-30T11:05:26.312Z,2.33
2019-01-30T11:07:53.820Z,3.07
2019-01-30T11:10:21.470Z,1.20
2019-01-30T11:12:49.085Z,1.30
2019-01-30T11:15:24.294Z,1.40
2019-01-30T11:17:53.943Z,1.60
2019-01-30T11:20:23.938Z,1.10
2019-01-30T11:23:17.674Z,2.43
2019-01-30T11:25:56.964Z,1.40
2019-01-30T11:28:27.498Z,1.43
2019-01-30T11:30:56.507Z,2.43
2019-01-30T11:33:29.226Z,2.17
2019-01-30T11:35:56.887Z,2.83
2019-01-30T11:38:26.846Z,1.30
2019-01-30T11:40:57.314Z,1.63
2019-01-30T11:43:31.404Z,1.60
2019-01-30T11:46:05.043Z,3.50
2019-01-30T11:48:36.397Z,1.50
2019-01-30T11:51:06.812Z,1.20
2019-01-30T11:53:36.315Z,1.63
2019-01-30T11:56:09.757Z,2.40
2019-01-30T11:58:37.326Z,1.80
2019-01-30T12:01:09.989Z,1.20
2019-01-30T12:03:46.749Z,4.03
2019-01-30T12:06:23.000Z,1.97
2019-01-30T12:08:51.593Z,1.30
2019-01-30T12:11:28.561Z,3.60
2019-01-30T12:14:02.712Z,1.57
2019-01-30T12:16:34.351Z,1.73
2019-01-30T12:19:05.218Z,2.20
2019-01-30T12:21:37.367Z,6.40
2019-01-30T12:24:16.504Z,1.10
2019-01-30T12:26:50.290Z,1.87
2019-01-30T12:29:17.965Z,5.70
2019-01-30T12:31:46.378Z,4.13
2019-01-30T12:34:27.709Z,1.43
2019-01-30T12:36:53.730Z,2.03
2019-01-30T12:39:21.327Z,3.10
2019-01-30T12:41:48.946Z,1.30
2019-01-30T12:44:16.628Z,1.50
2019-01-30T12:46:44.354Z,2.47
2019-01-30T12:49:22.272Z,3.10
2019-01-30T12:51:58.741Z,2.10
2019-01-30T12:54:36.174Z,5.63
2019-01-30T12:57:19.691Z,1.47
2019-01-30T12:59:53.761Z,1.77
2019-01-30T13:02:25.964Z,1.30
2019-01-30T13:04:58.147Z,1.10
2019-01-30T13:07:31.519Z,1.10
2019-01-30T13:10:05.794Z,2.60
2019-01-30T13:12:39.043Z,2.00
2019-01-30T13:15:08.823Z,1.30
2019-01-30T13:17:46.755Z,2.37
2019-01-30T13:20:21.049Z,1.30
2019-01-30T13:22:55.337Z,1.23
2019-01-30T13:25:33.468Z,1.00
2019-01-30T13:28:06.403Z,2.27
2019-01-30T13:30:39.313Z,2.70
2019-01-30T13:33:11.326Z,2.80
2019-01-30T13:35:41.530Z,1.60
2019-01-30T13:38:20.225Z,4.40
2019-01-30T13:41:00.647Z,1.17
2019-01-30T13:43:42.887Z,1.43
2019-01-30T13:46:22.225Z,1.83
2019-01-30T13:48:59.335Z,3.23
2019-01-30T13:51:34.151Z,1.00
2019-01-30T13:54:14.094Z,1.37
2019-01-30T13:56:51.662Z,1.63
2019-01-30T13:59:24.395Z,1.50
2019-01-30T14:01:54.978Z,1.70
2019-01-30T14:04:30.594Z,2.87
2019-01-30T14:07:00.543Z,2.43
2019-01-30T14:09:31.215Z,2.70
2019-01-30T14:11:58.770Z,1.63
2019-01-30T14:14:29.757Z,1.77
2019-01-30T14:16:59.666Z,2.10
2019-01-30T14:19:30.162Z,1.97
2019-01-30T14:22:00.408Z,1.30
2019-01-30T14:24:30.136Z,1.97
2019-01-30T14:27:00.805Z,2.63
2019-01-30T14:29:30.583Z,2.40
2019-01-30T14:31:58.166Z,2.13
2019-01-30T14:34:26.489Z,1.30
2019-01-30T14:37:03.062Z,1.70
2019-01-30T14:39:37.025Z,1.87
2019-01-30T14:42:04.829Z,1.57
2019-01-30T14:44:32.412Z,5.50
2019-01-30T14:46:59.986Z,3.10
2019-01-30T14:49:27.512Z,2.17
2019-01-30T14:51:54.948Z,1.40
2019-01-30T14:54:22.914Z,1.10
2019-01-30T14:56:50.414Z,1.73
2019-01-30T14:59:17.940Z,2.53
2019-01-30T15:01:45.364Z,1.00
2019-01-30T15:04:12.857Z,1.40
2019-01-30T15:06:43.194Z,2.23
2019-01-30T15:09:11.067Z,1.53
2019-01-30T15:11:39.556Z,2.60
2019-01-30T15:14:07.176Z,1.10
2019-01-30T15:16:34.930Z,1.40
2019-01-30T15:19:03.111Z,1.87
2019-01-30T15:21:59.032Z,1.30
2019-01-30T15:24:27.112Z,1.30
2019-01-30T15:26:54.922Z,1.27
2019-01-30T15:29:23.084Z,3.10
2019-01-30T15:32:06.385Z,2.60
2019-01-30T15:34:34.023Z,1.10
2019-01-30T15:37:01.665Z,1.13
2019-01-30T15:39:29.157Z,1.27
2019-01-30T15:41:56.885Z,3.83
2019-01-30T15:44:27.689Z,1.80
2019-01-30T15:46:56.438Z,1.93
2019-01-30T15:49:25.852Z,2.23
2019-01-30T15:51:54.705Z,4.87
2019-01-30T15:54:24.578Z,2.33
2019-01-30T15:56:53.104Z,3.50
2019-01-30T15:59:24.541Z,1.60
2019-01-30T16:02:04.218Z,1.63
2019-01-30T16:04:41.377Z,1.30
2019-01-30T16:07:16.262Z,1.40
2019-01-30T16:09:48.918Z,1.50
2019-01-30T16:12:20.017Z,1.43
2019-01-30T16:14:49.188Z,1.97
2019-01-30T16:17:27.582Z,2.63
2019-01-30T16:19:56.537Z,1.27
2019-01-30T16:25:57.405Z,1.80
2019-01-30T16:28:26.131Z,1.83
2019-01-30T16:30:54.877Z,9.03
2019-01-30T16:33:22.778Z,1.90
2019-01-30T16:35:58.246Z,1.93
2019-01-30T16:38:25.222Z,1.80
2019-01-30T16:40:59.132Z,2.07
2019-01-30T16:43:28.849Z,2.03
2019-01-30T16:46:05.573Z,3.87
2019-01-30T16:48:40.733Z,2.10
2019-01-30T16:51:11.910Z,1.33
2019-01-30T16:53:47.338Z,4.13
2019-01-30T16:56:16.519Z,1.80
2019-01-30T16:58:45.532Z,4.10
2019-01-30T17:01:19.117Z,4.97
2019-01-30T17:04:08.869Z,2.67
2019-01-30T17:06:52.308Z,2.37
2019-01-30T17:09:32.697Z,5.00
2019-01-30T17:16:03.817Z,4.00
2019-01-30T17:18:37.310Z,1.77
2019-01-30T17:28:28.750Z,2.03
2019-01-30T17:31:29.875Z,1.70
2019-01-30T17:34:31.560Z,5.53
2019-01-30T17:37:26.789Z,3.00
2019-01-30T17:40:54.285Z,2.70
2019-01-30T17:48:39.627Z,2.13
2019-01-30T17:51:27.885Z,3.07
2019-01-30T17:54:21.098Z,4.43
2019-01-30T18:06:13.114Z,3.00
2019-01-30T18:08:24.604Z,3.93
2019-01-30T18:21:10.179Z,3.60
2019-01-30T18:23:43.239Z,2.60
2019-01-30T18:26:12.731Z,1.80
2019-01-30T18:28:43.958Z,4.20
2019-01-30T18:31:14.365Z,3.43
2019-01-30T18:37:19.039Z,2.43
2019-01-30T18:40:16.710Z,4.33
2019-01-30T18:42:48.996Z,2.57
2019-01-30T18:45:26.534Z,4.30
2019-01-30T18:48:01.302Z,4.67
2019-01-30T18:50:36.821Z,8.37
2019-01-30T18:53:07.013Z,3.17
2019-01-30T18:55:38.310Z,8.57
2019-01-30T18:58:09.466Z,2.10
2019-01-30T19:00:42.412Z,2.77
2019-01-30T19:03:17.123Z,4.17
2019-01-30T19:05:56.452Z,2.50
2019-01-30T19:08:27.412Z,5.70
2019-01-30T19:10:59.324Z,4.23
2019-01-30T19:13:29.804Z,2.33
2019-01-30T19:15:59.903Z,6.00
2019-01-30T19:18:34.724Z,5.33
2019-01-30T19:21:05.828Z,3.90
2019-01-30T19:23:38.466Z,5.57
2019-01-30T19:26:08.744Z,3.57
2019-01-30T19:28:43.341Z,2.90
2019-01-30T19:31:15.988Z,2.63
2019-01-30T19:33:48.904Z,6.43
2019-01-30T19:36:19.376Z,5.73
2019-01-30T19:38:50.989Z,4.93
2019-01-30T19:41:22.783Z,5.50
2019-01-30T19:43:55.774Z,4.77
2019-01-30T19:46:32.288Z,5.37
2019-01-30T19:49:03.956Z,6.30
2019-01-30T19:54:51.958Z,11.10
2019-01-30T19:57:23.993Z,4.47
2019-01-30T20:00:04.521Z,7.13
2019-01-30T20:02:38.956Z,4.70
2019-01-30T20:05:13.566Z,6.40
2019-01-30T20:07:47.269Z,7.20
2019-01-30T20:10:35.980Z,4.50
2019-01-30T20:13:14.444Z,10.83
2019-01-30T20:15:46.746Z,5.17
2019-01-30T20:18:25.567Z,5.80
2019-01-30T20:21:06.306Z,7.23
2019-01-30T20:24:31.740Z,6.63
2019-01-30T20:27:15.046Z,7.77
2019-01-30T20:30:10.520Z,15.90
2019-01-30T20:40:22.613Z,9.30
2019-01-30T21:17:17.612Z,12.80
2019-01-30T21:20:09.329Z,8.87
2019-01-30T21:22:47.285Z,13.13
2019-01-30T21:25:35.877Z,6.93
2019-01-30T21:28:34.950Z,8.10
2019-01-30T21:31:45.642Z,9.17
2019-01-30T21:34:46.187Z,8.00
2019-01-30T21:37:48.981Z,10.37
2019-01-30T21:40:30.427Z,9.43
2019-01-30T21:43:45.150Z,12.47
2019-01-30T21:47:03.470Z,8.00
2019-01-30T21:50:24.901Z,11.20
2019-01-30T21:59:22.282Z,8.70
2019-01-30T22:02:08.025Z,10.47
2019-01-30T22:04:39.490Z,13.40
2019-01-30T22:07:09.053Z,10.70
2019-01-30T22:09:38.332Z,12.70
2019-01-30T22:12:09.200Z,16.30
2019-01-30T22:14:57.338Z,18.47
2019-01-30T22:17:28.182Z,15.00
2019-01-30T22:20:01.998Z,15.40
2019-01-30T22:22:30.303Z,11.70
2019-01-30T22:25:03.460Z,11.60
2019-01-30T22:27:52.074Z,9.27
2019-01-30T22:30:29.058Z,12.77
2019-01-30T22:33:08.035Z,16.30
2019-01-30T22:35:36.479Z,17.40
2019-01-30T22:38:12.149Z,18.43
2019-01-30T22:40:51.645Z,21.60
2019-01-30T22:43:19.644Z,16.83
2019-01-30T22:45:50.371Z,13.87
2019-01-30T22:48:18.085Z,18.07
2019-01-30T22:50:45.846Z,16.33
2019-01-30T22:53:14.296Z,18.27
2019-01-30T22:55:46.756Z,17.90
2019-01-30T22:58:36.104Z,21.40
2019-01-30T23:01:31.716Z,18.37
2019-01-30T23:04:48.587Z,15.70
2019-01-30T23:07:27.146Z,15.40
2019-01-30T23:10:42.578Z,15.17
2019-01-30T23:13:27.660Z,14.60
2019-01-30T23:16:23.997Z,12.87
2019-01-30T23:18:59.371Z,14.17
2019-01-30T23:21:33.598Z,13.03
2019-01-30T23:24:32.917Z,13.47
2019-01-30T23:27:12.121Z,13.40
2019-01-30T23:30:37.629Z,12.30
2019-01-30T23:33:48.665Z,21.53
2019-01-30T23:36:57.245Z,10.57
2019-01-30T23:39:57.681Z,12.70
2019-01-30T23:43:07.732Z,10.87
2019-01-30T23:45:52.405Z,11.80
2019-01-30T23:48:45.769Z,11.53
2019-01-30T23:51:46.164Z,16.10
2019-01-30T23:54:57.917Z,13.20
2019-01-30T23:58:10.138Z,8.27
